Time;durP1;ratioP1;P1;durP2;ratioP2;P2;SDS_P1;SDS_P2;PMS_P1;PMS_P2;Temp;Humidity;BMP_temperature;BMP_pressure;BME280_temperature;BME280_humidity;BME280_pressure;Samples;Min_cycle;Max_cycle;Signal;HPM_P1;HPM_P2
2023/04/04 00:02:07;;;;;;;8.50;2.97;;;7.60;39.10;;;;;;4978165;28;20476;-78
2023/04/04 00:04:33;;;;;;;7.78;2.97;;;7.60;38.80;;;;;;4978652;28;20018;-77
2023/04/04 00:06:58;;;;;;;5.03;2.33;;;7.60;38.40;;;;;;4978572;28;20085;-78
2023/04/04 00:09:24;;;;;;;4.93;2.22;;;7.50;38.00;;;;;;4996048;28;20102;-77
2023/04/04 00:11:50;;;;;;;7.30;2.83;;;7.50;38.00;;;;;;4978523;28;20419;-78
2023/04/04 00:14:16;;;;;;;5.07;2.58;;;7.50;38.00;;;;;;4978489;28;20076;-77
2023/04/04 00:16:42;;;;;;;6.07;2.95;;;7.50;38.20;;;;;;4995864;28;20022;-77
2023/04/04 00:19:10;;;;;;;6.65;2.60;;;7.50;38.60;;;;;;4978322;28;20037;-77
2023/04/04 00:21:36;;;;;;;4.82;2.50;;;7.50;38.40;;;;;;4995743;28;20077;-77
2023/04/04 00:24:01;;;;;;;10.82;2.75;;;7.50;38.60;;;;;;4995725;28;20022;-77
2023/04/04 00:26:27;;;;;;;10.35;3.10;;;7.50;38.50;;;;;;4995647;28;20037;-77
2023/04/04 00:28:53;;;;;;;6.80;3.28;;;7.50;38.40;;;;;;4978177;28;20022;-77
2023/04/04 00:31:19;;;;;;;9.00;2.60;;;7.50;38.50;;;;;;4995349;28;20073;-77
2023/04/04 00:33:46;;;;;;;8.13;2.92;;;7.40;38.00;;;;;;4994930;28;20387;-78
2023/04/04 00:36:12;;;;;;;6.25;2.75;;;7.30;38.00;;;;;;4995573;28;20385;-77
2023/04/04 00:38:37;;;;;;;6.05;2.92;;;7.30;38.10;;;;;;4978446;28;20579;-77
2023/04/04 00:41:05;;;;;;;9.77;3.45;;;7.30;38.10;;;;;;4995449;28;20101;-77
2023/04/04 00:43:32;;;;;;;11.60;4.03;;;7.30;38.30;;;;;;4995201;28;20033;-78
2023/04/04 00:45:57;;;;;;;5.32;3.00;;;7.30;38.60;;;;;;4995298;28;20022;-78
2023/04/04 00:48:23;;;;;;;5.32;2.90;;;7.20;38.90;;;;;;4995052;28;20149;-77
2023/04/04 00:50:49;;;;;;;4.47;3.05;;;7.20;39.30;;;;;;4977657;28;20030;-78
2023/04/04 00:53:16;;;;;;;5.35;2.78;;;7.20;39.40;;;;;;4995190;28;20431;-77
2023/04/04 00:55:42;;;;;;;7.72;3.20;;;7.10;39.50;;;;;;4977716;28;20037;-78
2023/04/04 00:58:09;;;;;;;8.90;3.00;;;7.10;39.60;;;;;;4995164;28;20036;-77
2023/04/04 01:00:36;;;;;;;8.30;2.95;;;7.10;39.70;;;;;;4994707;28;20054;-77
2023/04/04 01:03:04;;;;;;;5.75;2.78;;;7.10;39.80;;;;;;4994957;28;20026;-77
2023/04/04 01:05:30;;;;;;;5.32;2.60;;;7.10;40.00;;;;;;4994801;28;20033;-78
2023/04/04 01:07:56;;;;;;;5.82;2.72;;;7.10;39.90;;;;;;4977457;28;20033;-78
2023/04/04 01:10:22;;;;;;;6.90;3.20;;;7.10;39.50;;;;;;4978060;28;20133;-77
2023/04/04 01:12:48;;;;;;;6.15;2.72;;;7.20;39.30;;;;;;4998305;28;20022;-78
2023/04/04 01:15:14;;;;;;;8.23;3.47;;;7.20;39.30;;;;;;4983486;28;20525;-77
2023/04/04 01:17:42;;;;;;;8.48;3.53;;;7.20;39.40;;;;;;5001599;28;20027;-77
2023/04/04 01:20:14;;;;;;;7.30;2.70;;;7.20;39.30;;;;;;5000511;28;20022;-77
2023/04/04 01:22:42;;;;;;;4.28;2.58;;;7.20;39.30;;;;;;5001169;28;20025;-77
2023/04/04 01:25:08;;;;;;;6.40;2.90;;;7.10;39.30;;;;;;4982440;28;20029;-77
2023/04/04 01:27:34;;;;;;;5.20;2.33;;;7.10;39.40;;;;;;4978142;28;20014;-77
2023/04/04 01:30:01;;;;;;;5.60;2.35;;;7.10;39.40;;;;;;4979933;28;20030;-77
2023/04/04 01:32:50;;;;;;;3.92;2.47;;;7.10;39.80;;;;;;4976558;28;20176;-77
2023/04/04 01:35:30;;;;;;;6.07;2.40;;;7.20;40.10;;;;;;4975962;28;20057;-77
2023/04/04 01:38:20;;;;;;;4.13;2.20;;;7.30;40.30;;;;;;4994373;28;20046;-77
2023/04/04 01:40:53;;;;;;;7.10;2.45;;;7.30;40.50;;;;;;4976841;28;20037;-77
2023/04/04 01:43:19;;;;;;;5.30;2.40;;;7.40;40.80;;;;;;4994239;28;20383;-78
2023/04/04 01:45:45;;;;;;;7.70;4.15;;;7.40;40.70;;;;;;4994125;28;20028;-78
2023/04/04 01:48:11;;;;;;;8.80;4.32;;;7.50;40.70;;;;;;4994200;28;20018;-77
2023/04/04 01:50:37;;;;;;;10.32;5.88;;;7.50;40.90;;;;;;4994484;28;20494;-77
2023/04/04 01:53:02;;;;;;;7.03;4.47;;;7.50;41.10;;;;;;4994216;28;20391;-77
2023/04/04 01:55:28;;;;;;;4.93;2.90;;;7.60;41.20;;;;;;4994269;28;20452;-77
2023/04/04 01:57:54;;;;;;;6.05;2.63;;;7.50;41.00;;;;;;4976584;28;20034;-78
2023/04/04 02:00:20;;;;;;;5.57;2.83;;;7.50;40.60;;;;;;4993337;28;20526;-77
2023/04/04 02:02:46;;;;;;;6.38;2.58;;;7.50;40.30;;;;;;4994089;28;20034;-77
2023/04/04 02:05:11;;;;;;;4.15;2.60;;;7.50;40.60;;;;;;4994171;28;20100;-77
2023/04/04 02:07:37;;;;;;;6.38;3.00;;;7.50;40.60;;;;;;4994096;28;20029;-76
2023/04/04 02:10:04;;;;;;;6.55;2.70;;;7.50;40.30;;;;;;4993995;28;20472;-76
2023/04/04 02:12:30;;;;;;;8.65;3.22;;;7.50;40.30;;;;;;4994248;28;20023;-76
2023/04/04 02:14:55;;;;;;;6.18;2.30;;;7.50;40.00;;;;;;4993970;28;20032;-76
2023/04/04 02:17:21;;;;;;;5.13;2.65;;;7.50;40.10;;;;;;4976472;28;20034;-77
2023/04/04 02:19:47;;;;;;;5.68;2.70;;;7.50;39.60;;;;;;4976392;28;20026;-76
2023/04/04 02:22:12;;;;;;;6.47;2.83;;;7.40;39.30;;;;;;4993874;28;20030;-77
2023/04/04 02:24:38;;;;;;;5.53;2.42;;;7.40;39.50;;;;;;4976468;28;20109;-77
2023/04/04 02:27:04;;;;;;;8.18;3.20;;;7.30;39.90;;;;;;4976438;28;20109;-76
2023/04/04 02:29:30;;;;;;;10.43;3.00;;;7.30;40.00;;;;;;4976461;28;20026;-76
2023/04/04 02:31:56;;;;;;;6.03;2.92;;;7.30;39.70;;;;;;4993675;28;20033;-77
2023/04/04 02:34:22;;;;;;;7.30;2.80;;;7.20;40.00;;;;;;4976255;28;20050;-76
2023/04/04 02:36:48;;;;;;;6.13;3.15;;;7.20;39.80;;;;;;4976358;28;20088;-77
2023/04/04 02:39:14;;;;;;;5.93;2.85;;;7.20;39.40;;;;;;4976381;28;20036;-77
2023/04/04 02:41:40;;;;;;;5.05;2.75;;;7.10;39.20;;;;;;4976324;28;20026;-77
2023/04/04 02:44:07;;;;;;;7.43;3.40;;;7.10;39.50;;;;;;4976351;28;20023;-78
2023/04/04 02:46:33;;;;;;;5.03;2.42;;;7.00;38.90;;;;;;4993637;28;20022;-76
2023/04/04 02:49:00;;;;;;;3.85;2.10;;;7.00;39.10;;;;;;4976468;28;20472;-77
2023/04/04 02:51:26;;;;;;;5.78;2.58;;;7.00;39.70;;;;;;4993712;28;20077;-77
2023/04/04 02:53:52;;;;;;;5.13;2.70;;;7.00;39.60;;;;;;4976288;28;20027;-77
2023/04/04 02:56:18;;;;;;;6.72;2.97;;;6.90;39.60;;;;;;4976235;28;20443;-77
2023/04/04 02:58:44;;;;;;;6.70;2.85;;;6.80;39.40;;;;;;4976131;28;20050;-76
2023/04/04 03:01:10;;;;;;;6.30;2.67;;;6.80;40.00;;;;;;4975747;28;20073;-76
2023/04/04 03:03:35;;;;;;;10.82;2.95;;;6.80;40.20;;;;;;4976038;28;20030;-77
2023/04/04 03:06:01;;;;;;;5.47;2.70;;;6.70;39.40;;;;;;4993603;28;20097;-76
2023/04/04 03:08:27;;;;;;;7.10;2.95;;;6.70;39.00;;;;;;4993489;28;20023;-77
2023/04/04 03:10:53;;;;;;;6.03;2.40;;;6.70;39.10;;;;;;4995017;28;20038;-76
2023/04/04 03:13:19;;;;;;;6.40;3.00;;;6.60;38.60;;;;;;4997285;28;20030;-77
2023/04/04 03:15:45;;;;;;;4.97;2.80;;;6.60;38.00;;;;;;4997095;28;20518;-76
2023/04/04 03:18:11;;;;;;;6.20;3.13;;;6.50;37.30;;;;;;4997037;28;20134;-77
2023/04/04 03:20:37;;;;;;;8.20;3.95;;;6.40;37.30;;;;;;4996866;28;20022;-77
2023/04/04 03:23:03;;;;;;;9.02;4.00;;;6.40;37.80;;;;;;4996618;28;20030;-76
2023/04/04 03:25:29;;;;;;;8.23;3.03;;;6.30;36.10;;;;;;4996773;28;20116;-77
2023/04/04 03:27:55;;;;;;;5.65;2.70;;;6.30;35.70;;;;;;4996769;28;20019;-76
2023/04/04 03:30:21;;;;;;;4.65;2.88;;;6.20;36.10;;;;;;4996733;28;20085;-76
2023/04/04 03:32:47;;;;;;;6.72;3.38;;;6.20;36.70;;;;;;4996554;28;20026;-77
2023/04/04 03:35:13;;;;;;;7.53;3.13;;;6.20;35.20;;;;;;4996461;28;20047;-76
2023/04/04 03:37:39;;;;;;;14.43;3.03;;;6.20;34.80;;;;;;4996618;28;20542;-76
2023/04/04 03:40:05;;;;;;;6.68;2.28;;;6.20;34.50;;;;;;4996606;28;20384;-76
2023/04/04 03:42:34;;;;;;;5.05;2.45;;;6.20;35.00;;;;;;4996634;28;20034;-77
2023/04/04 03:45:00;;;;;;;6.13;2.80;;;6.20;35.20;;;;;;4989611;28;20027;-76
2023/04/04 03:47:25;;;;;;;5.40;3.00;;;6.20;35.00;;;;;;4996430;28;20358;-76
2023/04/04 03:49:51;;;;;;;3.55;2.30;;;6.20;34.80;;;;;;4996259;28;20030;-77
2023/04/04 03:52:17;;;;;;;7.65;2.63;;;6.20;34.80;;;;;;4996025;28;20061;-77
2023/04/04 03:54:43;;;;;;;5.05;2.63;;;6.20;34.90;;;;;;4996394;28;20026;-76
2023/04/04 03:57:09;;;;;;;9.65;2.88;;;6.20;34.90;;;;;;4996200;28;20365;-77
2023/04/04 03:59:35;;;;;;;4.80;2.67;;;6.30;34.60;;;;;;4996030;28;20038;-76
2023/04/04 04:02:01;;;;;;;4.40;2.42;;;6.20;33.80;;;;;;4996010;28;20030;-76
2023/04/04 04:04:27;;;;;;;4.45;2.00;;;6.20;34.00;;;;;;4978494;28;20117;-76
2023/04/04 04:06:52;;;;;;;7.13;2.70;;;6.30;34.10;;;;;;4996131;28;20018;-76
2023/04/04 04:09:18;;;;;;;4.68;2.13;;;6.30;34.10;;;;;;4996040;28;20038;-77
2023/04/04 04:11:45;;;;;;;6.28;2.75;;;6.30;34.20;;;;;;4996045;28;20030;-77
2023/04/04 04:14:11;;;;;;;5.63;2.40;;;6.40;34.30;;;;;;4978494;28;20030;-78
2023/04/04 04:16:40;;;;;;;5.72;2.88;;;6.40;34.30;;;;;;4996136;28;20441;-77
2023/04/04 04:19:06;;;;;;;6.18;2.80;;;6.50;34.30;;;;;;4995822;28;20093;-76
2023/04/04 04:21:32;;;;;;;3.80;2.15;;;6.50;34.90;;;;;;4977928;28;20034;-76
2023/04/04 04:23:57;;;;;;;4.88;2.22;;;6.60;35.50;;;;;;4977324;28;20117;-77
2023/04/04 04:26:23;;;;;;;7.80;2.13;;;6.70;35.90;;;;;;4995645;28;20069;-78
2023/04/04 04:28:49;;;;;;;4.35;2.15;;;6.70;36.00;;;;;;4977992;28;20023;-78
2023/04/04 04:31:15;;;;;;;3.25;2.05;;;6.80;36.20;;;;;;4995527;28;20023;-78
2023/04/04 04:33:40;;;;;;;7.30;2.83;;;6.80;36.40;;;;;;4995294;28;20030;-78
2023/04/04 04:36:07;;;;;;;7.68;2.35;;;6.80;35.90;;;;;;4977857;28;20441;-77
2023/04/04 04:38:32;;;;;;;4.88;2.17;;;6.80;36.00;;;;;;4978044;28;20026;-78
2023/04/04 04:40:59;;;;;;;5.20;2.72;;;6.80;36.80;;;;;;4977792;28;20026;-78
2023/04/04 04:43:26;;;;;;;5.95;2.40;;;6.80;36.60;;;;;;4977639;28;20027;-77
2023/04/04 04:45:52;;;;;;;5.22;2.47;;;6.80;36.70;;;;;;4977768;28;20023;-78
2023/04/04 04:48:18;;;;;;;4.40;2.03;;;6.80;36.80;;;;;;4977733;28;20380;-78
2023/04/04 04:50:44;;;;;;;3.92;2.42;;;6.90;36.90;;;;;;4994840;28;20018;-77
2023/04/04 04:53:10;;;;;;;5.43;2.53;;;6.90;36.30;;;;;;4977639;28;20038;-77
2023/04/04 04:55:36;;;;;;;6.60;2.22;;;6.90;36.00;;;;;;4977466;28;20504;-78
2023/04/04 04:58:03;;;;;;;19.80;3.05;;;6.90;36.50;;;;;;4995089;28;20388;-77
2023/04/04 05:00:28;;;;;;;5.68;2.20;;;6.90;36.90;;;;;;4995152;28;20026;-78
2023/04/04 05:02:55;;;;;;;3.03;1.77;;;7.00;37.10;;;;;;4977746;28;20037;-78
2023/04/04 05:05:21;;;;;;;4.80;2.30;;;7.00;37.10;;;;;;4994154;28;20026;-77
2023/04/04 05:07:47;;;;;;;4.53;2.42;;;7.00;36.30;;;;;;4977260;28;20019;-78
2023/04/04 05:10:14;;;;;;;8.50;2.75;;;7.00;35.90;;;;;;4994981;28;20022;-78
2023/04/04 05:12:43;;;;;;;6.40;2.05;;;7.00;35.90;;;;;;4994803;28;20026;-77
2023/04/04 05:15:11;;;;;;;5.15;2.38;;;7.00;36.10;;;;;;4994789;28;20022;-77
2023/04/04 05:17:37;;;;;;;7.75;2.60;;;7.00;36.60;;;;;;4994605;28;20479;-78
2023/04/04 05:20:03;;;;;;;6.57;2.58;;;7.00;36.40;;;;;;4977228;28;20134;-77
2023/04/04 05:22:29;;;;;;;4.88;2.35;;;7.00;36.30;;;;;;4993897;28;20022;-78
2023/04/04 05:24:55;;;;;;;3.85;2.10;;;7.10;36.50;;;;;;4994392;28;20076;-77
2023/04/04 05:27:21;;;;;;;4.88;2.30;;;7.10;36.50;;;;;;4977303;28;20030;-77
2023/04/04 05:29:47;;;;;;;5.80;2.72;;;7.10;36.90;;;;;;4994482;28;20018;-77
2023/04/04 05:32:14;;;;;;;19.27;4.40;;;7.10;35.90;;;;;;4977180;28;20022;-78
2023/04/04 05:34:40;;;;;;;5.95;2.22;;;7.20;36.00;;;;;;4993198;28;20066;-77
2023/04/04 05:37:06;;;;;;;6.10;2.75;;;7.20;35.40;;;;;;4994595;28;20131;-77
2023/04/04 05:39:32;;;;;;;5.00;2.70;;;7.20;35.30;;;;;;4994410;28;20493;-77
2023/04/04 05:41:57;;;;;;;7.97;2.83;;;7.10;35.30;;;;;;4976713;28;20110;-77
2023/04/04 05:44:23;;;;;;;5.40;2.25;;;7.10;35.50;;;;;;4976929;28;20022;-77
2023/04/04 05:46:50;;;;;;;4.07;2.38;;;7.20;35.20;;;;;;4994244;28;20018;-78
2023/04/04 05:49:15;;;;;;;7.47;2.42;;;7.20;35.20;;;;;;4976825;28;20022;-76
2023/04/04 05:51:41;;;;;;;5.72;3.42;;;7.20;35.20;;;;;;4993965;28;20435;-78
2023/04/04 05:54:07;;;;;;;5.28;2.58;;;7.30;35.40;;;;;;4976940;28;20042;-77
2023/04/04 05:56:33;;;;;;;5.57;2.50;;;7.30;35.00;;;;;;4994202;28;20018;-77
2023/04/04 05:58:59;;;;;;;5.35;2.70;;;7.20;34.50;;;;;;4994149;28;20031;-77
2023/04/04 06:01:26;;;;;;;4.30;2.38;;;7.20;34.50;;;;;;4976581;28;20391;-78
2023/04/04 06:03:52;;;;;;;3.95;2.30;;;7.20;34.40;;;;;;4993928;28;20019;-77
2023/04/04 06:06:18;;;;;;;6.18;2.60;;;7.20;34.20;;;;;;4994001;28;20073;-78
2023/04/04 06:08:43;;;;;;;4.18;2.50;;;7.20;34.40;;;;;;4994090;28;20473;-78
2023/04/04 06:11:09;;;;;;;7.60;2.60;;;7.20;34.40;;;;;;4976498;28;20054;-78
2023/04/04 06:13:35;;;;;;;9.10;2.55;;;7.20;34.40;;;;;;4976575;28;20073;-78
2023/04/04 06:16:01;;;;;;;5.43;2.33;;;7.20;34.10;;;;;;4994064;28;20600;-78
2023/04/04 06:18:27;;;;;;;4.53;2.50;;;7.20;34.10;;;;;;4976489;28;20139;-78
2023/04/04 06:20:53;;;;;;;5.38;2.50;;;7.30;34.50;;;;;;4976267;28;20026;-77
2023/04/04 06:23:19;;;;;;;7.07;2.65;;;7.40;34.60;;;;;;4993790;28;20026;-79
2023/04/04 06:25:45;;;;;;;5.00;1.95;;;7.40;33.80;;;;;;4993864;28;20023;-77
2023/04/04 06:28:14;;;;;;;8.27;2.42;;;7.40;34.20;;;;;;4993824;28;20042;-78
2023/04/04 06:30:40;;;;;;;4.75;2.50;;;7.40;33.60;;;;;;4993800;28;20027;-79
2023/04/04 06:33:06;;;;;;;6.15;2.17;;;7.40;33.80;;;;;;4976489;28;20102;-79
2023/04/04 06:35:32;;;;;;;4.95;2.25;;;7.50;33.80;;;;;;4975902;28;20050;-78
2023/04/04 06:37:58;;;;;;;7.55;2.50;;;7.50;33.90;;;;;;4994080;28;20022;-78
2023/04/04 06:40:23;;;;;;;4.80;2.38;;;7.60;34.00;;;;;;4993756;28;20031;-78
2023/04/04 06:42:56;;;;;;;4.20;2.58;;;7.60;33.70;;;;;;4993514;28;20041;-79
2023/04/04 06:45:23;;;;;;;7.13;2.10;;;7.60;34.10;;;;;;4995107;28;20015;-77
2023/04/04 06:47:50;;;;;;;3.92;2.30;;;7.80;34.10;;;;;;4979889;28;20498;-78
2023/04/04 06:50:16;;;;;;;6.13;2.30;;;7.80;33.80;;;;;;4979920;28;20026;-77
2023/04/04 06:52:43;;;;;;;3.47;2.08;;;7.80;33.50;;;;;;4979645;28;20038;-78
2023/04/04 06:55:09;;;;;;;4.72;2.33;;;7.90;32.80;;;;;;4997293;28;20030;-77
2023/04/04 06:57:35;;;;;;;3.60;1.95;;;7.90;32.30;;;;;;4997332;28;20030;-78
2023/04/04 07:00:02;;;;;;;5.15;2.33;;;7.90;32.90;;;;;;4979840;28;20503;-79
2023/04/04 07:02:28;;;;;;;3.92;2.05;;;8.00;32.90;;;;;;4996987;28;20034;-79
2023/04/04 07:04:54;;;;;;;6.35;2.60;;;8.10;33.40;;;;;;4996947;28;20026;-77
2023/04/04 07:07:20;;;;;;;7.72;2.30;;;8.10;33.40;;;;;;4997176;28;20018;-78
2023/04/04 07:09:46;;;;;;;3.80;2.03;;;8.20;33.10;;;;;;4979595;28;20030;-77
2023/04/04 07:12:12;;;;;;;5.10;2.70;;;8.20;33.00;;;;;;4997183;28;20026;-78
2023/04/04 07:14:38;;;;;;;4.50;2.40;;;8.20;33.40;;;;;;4996999;28;20026;-78
2023/04/04 07:17:04;;;;;;;5.85;2.92;;;8.20;33.70;;;;;;4979660;28;20022;-77
2023/04/04 07:19:30;;;;;;;6.97;2.33;;;8.30;33.50;;;;;;4996992;28;20089;-77
2023/04/04 07:21:55;;;;;;;7.88;2.33;;;8.40;33.10;;;;;;4996312;28;20034;-77
2023/04/04 07:24:21;;;;;;;6.10;3.08;;;8.50;33.20;;;;;;4979113;28;20475;-78
2023/04/04 07:26:47;;;;;;;5.35;2.35;;;8.50;32.60;;;;;;4996584;28;20468;-77
2023/04/04 07:29:13;;;;;;;4.13;2.10;;;8.60;33.00;;;;;;4996449;28;20114;-77
2023/04/04 07:31:39;;;;;;;3.85;1.95;;;8.70;33.10;;;;;;4979175;28;20031;-77
2023/04/04 07:34:06;;;;;;;3.85;2.08;;;8.90;33.10;;;;;;4996214;28;20049;-78
2023/04/04 07:36:31;;;;;;;3.85;2.40;;;9.00;33.30;;;;;;4978899;28;20500;-77
2023/04/04 07:38:57;;;;;;;10.13;2.50;;;9.10;32.90;;;;;;4996311;28;20015;-78
2023/04/04 07:41:24;;;;;;;4.78;2.03;;;9.20;31.50;;;;;;4978727;28;20070;-78
2023/04/04 07:43:50;;;;;;;5.85;2.30;;;9.10;30.70;;;;;;4996187;28;20113;-82
2023/04/04 07:46:16;;;;;;;7.03;2.60;;;9.00;30.70;;;;;;4978765;28;20133;-79
2023/04/04 07:48:42;;;;;;;3.83;2.15;;;8.90;30.60;;;;;;4978587;28;20023;-78
2023/04/04 07:51:09;;;;;;;7.13;2.33;;;8.80;29.90;;;;;;4995654;28;20042;-79
2023/04/04 07:53:35;;;;;;;6.43;2.47;;;8.70;29.90;;;;;;4996156;28;20101;-77
2023/04/04 07:56:05;;;;;;;3.58;2.00;;;8.60;30.20;;;;;;4996047;28;20491;-76
2023/04/04 07:58:34;;;;;;;5.90;2.33;;;8.50;30.30;;;;;;4995058;28;20027;-78
2023/04/04 08:01:01;;;;;;;3.30;1.95;;;8.50;30.40;;;;;;4995891;28;20092;-78
2023/04/04 08:03:27;;;;;;;6.88;2.33;;;8.40;30.00;;;;;;4978375;28;20156;-77
2023/04/04 08:05:53;;;;;;;5.82;2.47;;;8.40;30.60;;;;;;4995792;28;20097;-77
2023/04/04 08:08:19;;;;;;;6.38;2.38;;;8.50;31.20;;;;;;4996273;28;20467;-77
2023/04/04 08:10:45;;;;;;;6.10;2.40;;;8.60;31.20;;;;;;4995749;28;20033;-77
2023/04/04 08:13:12;;;;;;;3.25;2.10;;;8.70;31.40;;;;;;4995687;28;20109;-78
2023/04/04 08:15:38;;;;;;;4.38;2.20;;;8.70;30.90;;;;;;4978211;28;20030;-77
2023/04/04 08:18:04;;;;;;;5.13;2.47;;;8.70;30.60;;;;;;4995518;28;20026;-77
2023/04/04 08:20:30;;;;;;;7.22;2.50;;;8.80;30.70;;;;;;4995434;28;20160;-77
2023/04/04 08:22:57;;;;;;;5.68;2.33;;;8.80;30.00;;;;;;4977398;28;20030;-78
2023/04/04 08:25:24;;;;;;;4.40;2.38;;;8.80;29.60;;;;;;4978114;28;20027;-77
2023/04/04 08:27:50;;;;;;;5.35;2.10;;;8.80;29.70;;;;;;4978267;28;20447;-77
2023/04/04 08:30:16;;;;;;;6.38;2.63;;;8.80;29.90;;;;;;4995490;28;20050;-77
2023/04/04 08:32:44;;;;;;;8.18;2.42;;;8.90;30.30;;;;;;4978095;28;20061;-77
2023/04/04 08:35:11;;;;;;;4.22;2.28;;;9.00;30.00;;;;;;4995319;28;20046;-77
2023/04/04 08:37:37;;;;;;;5.20;2.10;;;9.00;29.60;;;;;;4995348;28;20026;-77
2023/04/04 08:40:03;;;;;;;5.70;2.10;;;9.00;28.80;;;;;;4995289;28;20057;-78
2023/04/04 08:42:34;;;;;;;4.50;2.25;;;9.00;29.10;;;;;;4977691;28;20113;-77
2023/04/04 08:45:04;;;;;;;4.55;2.50;;;8.90;28.40;;;;;;4977486;28;20034;-78
2023/04/04 08:47:31;;;;;;;7.35;2.42;;;8.90;28.80;;;;;;4995094;28;20018;-77
2023/04/04 08:50:00;;;;;;;3.97;2.40;;;8.90;28.60;;;;;;4994981;28;20029;-78
2023/04/04 08:52:27;;;;;;;4.32;2.10;;;8.80;29.00;;;;;;4976950;28;20034;-78
2023/04/04 08:54:55;;;;;;;5.25;2.30;;;8.80;29.00;;;;;;4977487;28;20034;-78
2023/04/04 08:57:21;;;;;;;4.53;2.30;;;8.80;29.30;;;;;;4977444;28;20026;-78
2023/04/04 08:59:47;;;;;;;4.22;2.08;;;8.80;29.00;;;;;;4995005;28;20027;-78
2023/04/04 09:02:31;;;;;;;4.75;2.63;;;8.80;28.80;;;;;;4994730;28;20061;-78
2023/04/04 09:04:59;;;;;;;5.15;2.50;;;8.90;29.30;;;;;;4977259;28;20023;-78
2023/04/04 09:07:26;;;;;;;4.25;2.38;;;8.90;29.20;;;;;;4977335;28;20038;-77
2023/04/04 09:09:53;;;;;;;5.50;2.28;;;9.00;29.40;;;;;;4977061;28;20114;-78
2023/04/04 09:12:21;;;;;;;7.75;2.97;;;9.10;29.30;;;;;;4994992;28;20502;-77
2023/04/04 09:14:49;;;;;;;7.82;2.40;;;9.00;28.50;;;;;;4994748;28;20026;-77
2023/04/04 09:17:15;;;;;;;5.55;2.33;;;8.90;28.80;;;;;;4994692;28;20108;-77
2023/04/04 09:19:41;;;;;;;11.00;2.45;;;8.80;28.80;;;;;;4977251;28;20492;-78
2023/04/04 09:22:08;;;;;;;5.53;2.35;;;8.80;29.00;;;;;;4976683;28;20053;-77
2023/04/04 09:24:39;;;;;;;16.02;2.42;;;8.90;29.60;;;;;;4994816;28;20026;-78
2023/04/04 09:27:07;;;;;;;5.57;3.00;;;9.10;29.70;;;;;;4994617;28;20027;-78
2023/04/04 09:29:33;;;;;;;6.20;2.28;;;9.30;29.70;;;;;;4994465;28;20026;-77
2023/04/04 09:31:59;;;;;;;3.53;1.90;;;9.50;29.90;;;;;;4994406;28;20019;-78
2023/04/04 09:34:27;;;;;;;3.85;2.35;;;9.80;29.80;;;;;;4994236;28;20050;-77
2023/04/04 09:36:53;;;;;;;7.00;2.70;;;10.00;29.60;;;;;;4994306;28;20510;-77
2023/04/04 09:39:19;;;;;;;5.82;2.50;;;10.10;29.30;;;;;;4994588;28;20027;-77
2023/04/04 09:41:46;;;;;;;5.65;2.75;;;10.10;29.20;;;;;;4994294;28;20515;-77
2023/04/04 09:44:12;;;;;;;5.85;2.55;;;10.00;28.80;;;;;;4994258;28;20065;-77
2023/04/04 09:46:39;;;;;;;8.77;2.80;;;10.00;28.80;;;;;;4994181;28;20018;-77
2023/04/04 09:49:10;;;;;;;8.27;3.10;;;9.90;29.00;;;;;;4976778;28;20026;-77
2023/04/04 09:51:37;;;;;;;5.90;3.00;;;9.80;29.20;;;;;;4976554;28;20027;-77
2023/04/04 09:54:05;;;;;;;6.05;2.80;;;9.80;29.00;;;;;;4976667;28;20023;-77
2023/04/04 09:56:34;;;;;;;6.75;2.80;;;9.70;29.00;;;;;;4994086;28;20042;-78
2023/04/04 09:59:01;;;;;;;3.85;2.30;;;9.70;29.20;;;;;;4994032;28;20025;-77
2023/04/04 10:01:28;;;;;;;6.40;2.78;;;9.70;28.90;;;;;;4994123;28;20022;-77
2023/04/04 10:03:54;;;;;;;4.93;2.40;;;9.80;28.40;;;;;;4976271;28;20030;-78
2023/04/04 10:06:21;;;;;;;8.65;2.80;;;9.70;28.50;;;;;;4993870;28;20022;-78
2023/04/04 10:08:47;;;;;;;8.30;2.95;;;9.70;28.40;;;;;;4993837;28;20019;-78
2023/04/04 10:11:30;;;;;;;8.30;3.08;;;9.80;28.80;;;;;;4993750;28;20042;-78
2023/04/04 10:13:57;;;;;;;6.90;2.72;;;9.80;27.90;;;;;;4993838;28;20416;-78
2023/04/04 10:16:25;;;;;;;5.43;2.10;;;9.80;27.20;;;;;;4993728;28;20073;-78
2023/04/04 10:18:52;;;;;;;3.70;2.30;;;9.70;27.60;;;;;;4976275;28;20085;-78
2023/04/04 10:21:18;;;;;;;3.95;2.15;;;9.90;28.10;;;;;;4998034;28;20456;-78
2023/04/04 10:23:48;;;;;;;6.03;2.53;;;9.90;28.00;;;;;;4982575;28;20077;-78
2023/04/04 10:26:14;;;;;;;7.13;2.45;;;10.10;28.70;;;;;;5000208;28;20019;-78
2023/04/04 10:28:42;;;;;;;5.75;2.60;;;10.30;29.00;;;;;;5000136;28;20101;-78
2023/04/04 10:31:14;;;;;;;4.88;2.47;;;10.50;28.50;;;;;;5000078;28;20022;-78
2023/04/04 10:34:08;;;;;;;8.25;2.95;;;10.70;28.40;;;;;;4982359;28;20480;-78
2023/04/04 10:36:46;;;;;;;5.00;2.80;;;10.80;28.20;;;;;;4982289;28;20129;-78
2023/04/04 10:39:13;;;;;;;15.48;3.38;;;10.90;28.30;;;;;;4982882;28;20380;-78
2023/04/04 10:41:39;;;;;;;4.47;2.60;;;10.90;27.50;;;;;;4982640;28;20026;-78
2023/04/04 10:44:32;;;;;;;15.55;2.28;;;10.70;27.50;;;;;;4999341;28;20511;-75
2023/04/04 10:47:13;;;;;;;5.13;2.38;;;10.60;27.20;;;;;;4991747;28;20118;-78
2023/04/04 10:49:42;;;;;;;3.72;2.35;;;10.50;26.80;;;;;;4982021;28;20057;-78
2023/04/04 10:52:10;;;;;;;5.75;2.83;;;10.40;26.80;;;;;;4999773;28;20041;-77
2023/04/04 10:54:36;;;;;;;5.28;2.10;;;10.40;27.00;;;;;;4999119;28;20057;-78
2023/04/04 10:57:02;;;;;;;4.57;2.60;;;10.40;27.40;;;;;;4982611;28;20033;-77
2023/04/04 10:59:29;;;;;;;7.63;2.88;;;10.40;27.60;;;;;;5000003;28;20026;-78
2023/04/04 11:01:58;;;;;;;4.70;2.50;;;10.50;27.50;;;;;;4982686;28;20065;-78
2023/04/04 11:04:32;;;;;;;4.85;2.70;;;10.50;27.60;;;;;;4999956;28;20468;-77
2023/04/04 11:07:12;;;;;;;6.32;2.92;;;10.60;28.00;;;;;;5000002;28;20472;-78
2023/04/04 11:10:00;;;;;;;7.22;2.63;;;10.70;28.20;;;;;;4982618;28;20030;-78
2023/04/04 11:12:25;;;;;;;7.95;2.42;;;10.80;28.20;;;;;;4982536;28;20073;-77
2023/04/04 11:14:55;;;;;;;7.72;3.75;;;11.00;28.60;;;;;;4999892;28;20026;-77
2023/04/04 11:18:03;;;;;;;7.05;3.05;;;11.10;28.20;;;;;;4982432;28;20041;-78
2023/04/04 11:20:32;;;;;;;5.93;3.30;;;11.00;27.70;;;;;;4901615;29;20039;-78
2023/04/04 11:23:03;;;;;;;6.63;3.47;;;10.90;27.20;;;;;;4895303;29;20108;-78
2023/04/04 11:25:33;;;;;;;4.72;2.83;;;10.80;27.30;;;;;;4901843;29;20040;-78
2023/04/04 11:28:05;;;;;;;8.57;2.65;;;10.70;27.50;;;;;;4901934;29;20036;-80
2023/04/04 11:30:36;;;;;;;4.45;2.45;;;10.70;27.80;;;;;;4901769;29;20526;-78
2023/04/04 11:33:03;;;;;;;5.45;2.50;;;10.80;27.60;;;;;;4899180;29;20076;-76
2023/04/04 11:35:29;;;;;;;4.43;2.60;;;10.80;27.40;;;;;;4913635;29;20601;-79
2023/04/04 11:37:55;;;;;;;4.05;2.40;;;10.80;26.90;;;;;;4917643;29;20044;-77
2023/04/04 11:40:37;;;;;;;3.70;2.03;;;10.90;27.60;;;;;;4901758;29;20064;-76
2023/04/04 11:43:11;;;;;;;6.25;2.78;;;11.10;28.10;;;;;;4917592;29;20036;-76
2023/04/04 11:45:43;;;;;;;4.47;2.50;;;11.30;26.60;;;;;;4917739;29;20040;-77
2023/04/04 11:48:09;;;;;;;7.35;2.58;;;11.20;26.20;;;;;;4917765;29;20492;-75
2023/04/04 11:50:39;;;;;;;3.83;2.25;;;11.20;27.10;;;;;;4936182;28;20038;-75
2023/04/04 11:53:09;;;;;;;7.45;2.60;;;11.30;27.50;;;;;;4979036;28;20034;-78
2023/04/04 11:55:42;;;;;;;8.70;2.78;;;11.40;27.40;;;;;;4996358;28;20022;-78
2023/04/04 11:58:13;;;;;;;5.90;2.65;;;11.30;26.90;;;;;;4978846;28;20077;-78
2023/04/04 12:00:40;;;;;;;6.75;3.45;;;11.30;27.50;;;;;;4978561;28;20027;-78
2023/04/04 12:03:11;;;;;;;6.15;2.25;;;11.30;27.70;;;;;;4978387;28;20033;-76
2023/04/04 12:05:42;;;;;;;6.10;2.90;;;11.20;27.50;;;;;;4978625;28;20431;-78
2023/04/04 12:08:10;;;;;;;4.60;2.33;;;11.10;27.30;;;;;;4978673;28;20511;-75
2023/04/04 12:10:37;;;;;;;5.88;2.50;;;11.00;27.40;;;;;;4996059;28;20015;-78
2023/04/04 12:13:08;;;;;;;5.18;2.53;;;11.10;27.70;;;;;;4995935;28;20518;-78
2023/04/04 12:15:35;;;;;;;3.42;2.47;;;11.00;27.50;;;;;;4978514;28;20093;-76
2023/04/04 12:18:01;;;;;;;6.22;3.05;;;11.20;27.60;;;;;;4978455;28;20567;-75
2023/04/04 12:20:29;;;;;;;7.75;2.45;;;11.30;27.80;;;;;;4995600;28;20435;-77
2023/04/04 12:22:55;;;;;;;7.30;2.78;;;11.50;27.30;;;;;;4995890;28;20022;-75
2023/04/04 12:25:22;;;;;;;6.38;3.05;;;11.50;27.20;;;;;;4978344;28;20033;-76
2023/04/04 12:27:49;;;;;;;5.07;2.70;;;11.50;26.80;;;;;;4978278;28;20031;-75
2023/04/04 12:30:17;;;;;;;4.47;2.55;;;11.30;25.50;;;;;;4995655;28;20030;-76
2023/04/04 12:32:47;;;;;;;8.68;2.47;;;11.20;25.60;;;;;;4995536;28;20080;-77
2023/04/04 12:35:14;;;;;;;5.22;2.38;;;11.00;25.70;;;;;;4995396;28;20137;-76
2023/04/04 12:37:57;;;;;;;4.05;2.20;;;10.90;26.40;;;;;;4995791;28;20026;-78
2023/04/04 12:40:23;;;;;;;6.68;2.35;;;10.90;26.90;;;;;;4995473;28;20109;-75
2023/04/04 12:42:49;;;;;;;4.88;2.42;;;11.00;26.80;;;;;;4995089;28;20106;-78
2023/04/04 12:45:15;;;;;;;8.73;3.08;;;11.00;27.30;;;;;;4977676;28;20030;-75
2023/04/04 12:47:55;;;;;;;6.97;2.83;;;10.90;27.40;;;;;;4977936;28;20412;-76
2023/04/04 12:50:26;;;;;;;7.60;2.28;;;10.80;27.10;;;;;;4995019;28;20393;-76
2023/04/04 12:52:53;;;;;;;7.47;2.92;;;10.70;26.60;;;;;;4995641;28;20065;-77
2023/04/04 12:55:22;;;;;;;6.18;2.67;;;10.60;27.20;;;;;;4997387;28;20046;-75
2023/04/04 12:57:50;;;;;;;9.32;2.78;;;10.50;27.10;;;;;;4997767;28;20465;-75